sensor_id;sensor_type;location;lat;lon;timestamp;P1;durP1;ratioP1;P2;durP2;ratioP2
57025;SDS011;43961;52.940;6.834;2023-03-20T00:01:15;17.60;;;12.37;;
57025;SDS011;43961;52.940;6.834;2023-03-20T00:03:42;19.40;;;13.27;;
57025;SDS011;43961;52.940;6.834;2023-03-20T00:08:44;20.30;;;12.43;;
57025;SDS011;43961;52.940;6.834;2023-03-20T00:11:33;19.08;;;12.68;;
57025;SDS011;43961;52.940;6.834;2023-03-20T00:13:59;23.45;;;13.35;;
57025;SDS011;43961;52.940;6.834;2023-03-20T00:16:32;22.15;;;12.85;;
57025;SDS011;43961;52.940;6.834;2023-03-20T00:19:00;17.58;;;11.88;;
57025;SDS011;43961;52.940;6.834;2023-03-20T00:21:27;20.08;;;12.63;;
57025;SDS011;43961;52.940;6.834;2023-03-20T00:23:53;25.42;;;13.73;;
57025;SDS011;43961;52.940;6.834;2023-03-20T00:26:19;21.73;;;13.30;;
57025;SDS011;43961;52.940;6.834;2023-03-20T00:28:50;18.73;;;12.10;;
57025;SDS011;43961;52.940;6.834;2023-03-20T00:33:50;20.77;;;13.60;;
57025;SDS011;43961;52.940;6.834;2023-03-20T00:36:17;22.90;;;13.70;;
57025;SDS011;43961;52.940;6.834;2023-03-20T00:38:43;21.30;;;14.98;;
57025;SDS011;43961;52.940;6.834;2023-03-20T00:41:25;19.80;;;12.90;;
57025;SDS011;43961;52.940;6.834;2023-03-20T00:44:08;22.40;;;13.68;;
57025;SDS011;43961;52.940;6.834;2023-03-20T00:47:12;28.38;;;13.35;;
57025;SDS011;43961;52.940;6.834;2023-03-20T00:49:43;20.48;;;13.77;;
57025;SDS011;43961;52.940;6.834;2023-03-20T00:54:38;25.67;;;14.82;;
57025;SDS011;43961;52.940;6.834;2023-03-20T00:57:05;16.63;;;12.13;;
57025;SDS011;43961;52.940;6.834;2023-03-20T00:59:37;17.30;;;10.57;;
57025;SDS011;43961;52.940;6.834;2023-03-20T01:02:05;18.95;;;11.05;;
57025;SDS011;43961;52.940;6.834;2023-03-20T01:04:38;20.50;;;10.57;;
57025;SDS011;43961;52.940;6.834;2023-03-20T01:07:05;21.42;;;12.52;;
57025;SDS011;43961;52.940;6.834;2023-03-20T01:09:35;20.83;;;11.27;;
57025;SDS011;43961;52.940;6.834;2023-03-20T01:12:04;20.00;;;11.43;;
57025;SDS011;43961;52.940;6.834;2023-03-20T01:14:31;21.33;;;11.47;;
57025;SDS011;43961;52.940;6.834;2023-03-20T01:16:59;24.92;;;14.13;;
57025;SDS011;43961;52.940;6.834;2023-03-20T01:19:24;33.88;;;13.48;;
57025;SDS011;43961;52.940;6.834;2023-03-20T01:21:50;24.83;;;13.02;;
57025;SDS011;43961;52.940;6.834;2023-03-20T01:24:16;24.42;;;11.77;;
57025;SDS011;43961;52.940;6.834;2023-03-20T01:26:42;20.25;;;12.55;;
57025;SDS011;43961;52.940;6.834;2023-03-20T01:29:16;17.98;;;12.68;;
57025;SDS011;43961;52.940;6.834;2023-03-20T01:31:51;23.77;;;12.95;;
57025;SDS011;43961;52.940;6.834;2023-03-20T01:34:19;15.30;;;11.50;;
57025;SDS011;43961;52.940;6.834;2023-03-20T01:36:52;18.42;;;11.93;;
57025;SDS011;43961;52.940;6.834;2023-03-20T01:39:20;23.70;;;12.65;;
57025;SDS011;43961;52.940;6.834;2023-03-20T01:41:48;16.27;;;10.55;;
57025;SDS011;43961;52.940;6.834;2023-03-20T01:44:24;15.35;;;9.88;;
57025;SDS011;43961;52.940;6.834;2023-03-20T01:46:52;17.55;;;12.07;;
57025;SDS011;43961;52.940;6.834;2023-03-20T01:51:48;18.58;;;10.70;;
57025;SDS011;43961;52.940;6.834;2023-03-20T01:54:16;21.38;;;11.10;;
57025;SDS011;43961;52.940;6.834;2023-03-20T01:59:31;24.00;;;12.73;;
57025;SDS011;43961;52.940;6.834;2023-03-20T02:01:59;21.80;;;11.73;;
57025;SDS011;43961;52.940;6.834;2023-03-20T02:04:27;21.75;;;10.07;;
57025;SDS011;43961;52.940;6.834;2023-03-20T02:06:58;24.15;;;11.60;;
57025;SDS011;43961;52.940;6.834;2023-03-20T02:09:24;27.63;;;11.88;;
57025;SDS011;43961;52.940;6.834;2023-03-20T02:11:50;19.27;;;11.02;;
57025;SDS011;43961;52.940;6.834;2023-03-20T02:14:17;23.27;;;9.48;;
57025;SDS011;43961;52.940;6.834;2023-03-20T02:16:44;26.25;;;11.02;;
57025;SDS011;43961;52.940;6.834;2023-03-20T02:19:16;21.30;;;10.50;;
57025;SDS011;43961;52.940;6.834;2023-03-20T02:22:14;18.65;;;10.27;;
57025;SDS011;43961;52.940;6.834;2023-03-20T02:46:10;29.00;;;12.90;;
57025;SDS011;43961;52.940;6.834;2023-03-20T02:48:55;27.08;;;12.88;;
57025;SDS011;43961;52.940;6.834;2023-03-20T02:51:34;23.67;;;13.75;;
57025;SDS011;43961;52.940;6.834;2023-03-20T02:54:19;29.13;;;14.25;;
57025;SDS011;43961;52.940;6.834;2023-03-20T03:02:25;24.70;;;13.30;;
57025;SDS011;43961;52.940;6.834;2023-03-20T03:04:58;24.27;;;14.18;;
57025;SDS011;43961;52.940;6.834;2023-03-20T03:07:29;21.23;;;13.65;;
57025;SDS011;43961;52.940;6.834;2023-03-20T03:09:59;26.70;;;13.77;;
57025;SDS011;43961;52.940;6.834;2023-03-20T03:12:50;20.25;;;14.75;;
57025;SDS011;43961;52.940;6.834;2023-03-20T03:15:20;19.70;;;13.85;;
57025;SDS011;43961;52.940;6.834;2023-03-20T03:17:54;26.27;;;15.52;;
57025;SDS011;43961;52.940;6.834;2023-03-20T03:20:32;28.40;;;15.25;;
57025;SDS011;43961;52.940;6.834;2023-03-20T03:23:00;26.83;;;13.98;;
57025;SDS011;43961;52.940;6.834;2023-03-20T03:25:28;23.60;;;13.98;;
57025;SDS011;43961;52.940;6.834;2023-03-20T03:28:20;26.98;;;16.25;;
57025;SDS011;43961;52.940;6.834;2023-03-20T03:30:50;24.63;;;14.57;;
57025;SDS011;43961;52.940;6.834;2023-03-20T03:35:45;25.08;;;15.40;;
57025;SDS011;43961;52.940;6.834;2023-03-20T03:43:40;28.48;;;14.63;;
57025;SDS011;43961;52.940;6.834;2023-03-20T03:51:38;25.52;;;16.67;;
57025;SDS011;43961;52.940;6.834;2023-03-20T03:54:10;25.70;;;17.63;;
57025;SDS011;43961;52.940;6.834;2023-03-20T03:56:43;33.33;;;17.80;;
57025;SDS011;43961;52.940;6.834;2023-03-20T03:59:16;30.80;;;16.38;;
57025;SDS011;43961;52.940;6.834;2023-03-20T04:01:56;31.98;;;18.08;;
57025;SDS011;43961;52.940;6.834;2023-03-20T04:06:52;32.13;;;18.30;;
57025;SDS011;43961;52.940;6.834;2023-03-20T04:09:18;32.38;;;18.42;;
57025;SDS011;43961;52.940;6.834;2023-03-20T04:11:44;32.15;;;17.75;;
57025;SDS011;43961;52.940;6.834;2023-03-20T04:14:13;29.67;;;17.15;;
57025;SDS011;43961;52.940;6.834;2023-03-20T04:16:39;37.28;;;18.92;;
57025;SDS011;43961;52.940;6.834;2023-03-20T04:19:05;31.08;;;18.50;;
57025;SDS011;43961;52.940;6.834;2023-03-20T04:21:31;36.83;;;19.58;;
57025;SDS011;43961;52.940;6.834;2023-03-20T04:23:57;25.02;;;18.55;;
57025;SDS011;43961;52.940;6.834;2023-03-20T04:26:23;31.60;;;18.90;;
57025;SDS011;43961;52.940;6.834;2023-03-20T04:28:48;23.75;;;16.50;;
57025;SDS011;43961;52.940;6.834;2023-03-20T04:31:15;33.10;;;19.95;;
57025;SDS011;43961;52.940;6.834;2023-03-20T04:33:42;25.40;;;17.02;;
57025;SDS011;43961;52.940;6.834;2023-03-20T04:36:07;25.75;;;16.08;;
57025;SDS011;43961;52.940;6.834;2023-03-20T04:38:34;27.13;;;16.05;;
57025;SDS011;43961;52.940;6.834;2023-03-20T04:41:00;26.40;;;15.63;;
57025;SDS011;43961;52.940;6.834;2023-03-20T04:43:26;29.88;;;17.48;;
57025;SDS011;43961;52.940;6.834;2023-03-20T04:45:52;29.65;;;15.65;;
57025;SDS011;43961;52.940;6.834;2023-03-20T04:48:18;22.17;;;15.13;;
57025;SDS011;43961;52.940;6.834;2023-03-20T04:50:44;29.30;;;15.35;;
57025;SDS011;43961;52.940;6.834;2023-03-20T04:53:14;21.40;;;13.43;;
57025;SDS011;43961;52.940;6.834;2023-03-20T04:55:41;18.83;;;12.43;;
57025;SDS011;43961;52.940;6.834;2023-03-20T04:58:07;26.90;;;13.30;;
57025;SDS011;43961;52.940;6.834;2023-03-20T05:00:33;22.65;;;13.02;;
57025;SDS011;43961;52.940;6.834;2023-03-20T05:02:59;19.33;;;13.00;;
57025;SDS011;43961;52.940;6.834;2023-03-20T05:05:25;27.23;;;13.05;;
57025;SDS011;43961;52.940;6.834;2023-03-20T05:07:51;19.52;;;12.60;;
57025;SDS011;43961;52.940;6.834;2023-03-20T05:10:17;20.90;;;12.32;;
57025;SDS011;43961;52.940;6.834;2023-03-20T05:12:43;19.17;;;12.68;;
57025;SDS011;43961;52.940;6.834;2023-03-20T05:15:09;17.02;;;11.15;;
57025;SDS011;43961;52.940;6.834;2023-03-20T05:17:35;19.45;;;11.50;;
57025;SDS011;43961;52.940;6.834;2023-03-20T05:20:01;23.60;;;11.02;;
57025;SDS011;43961;52.940;6.834;2023-03-20T05:22:27;17.88;;;10.38;;
57025;SDS011;43961;52.940;6.834;2023-03-20T05:24:53;18.50;;;10.85;;
57025;SDS011;43961;52.940;6.834;2023-03-20T05:27:18;22.23;;;12.10;;
57025;SDS011;43961;52.940;6.834;2023-03-20T05:29:44;23.48;;;12.77;;
57025;SDS011;43961;52.940;6.834;2023-03-20T05:32:10;18.55;;;11.75;;
57025;SDS011;43961;52.940;6.834;2023-03-20T05:34:36;16.42;;;11.90;;
57025;SDS011;43961;52.940;6.834;2023-03-20T05:37:02;22.25;;;14.23;;
57025;SDS011;43961;52.940;6.834;2023-03-20T05:39:28;20.17;;;12.90;;
57025;SDS011;43961;52.940;6.834;2023-03-20T05:41:54;21.58;;;13.98;;
57025;SDS011;43961;52.940;6.834;2023-03-20T05:44:20;22.20;;;14.55;;
57025;SDS011;43961;52.940;6.834;2023-03-20T05:46:45;27.15;;;14.30;;
57025;SDS011;43961;52.940;6.834;2023-03-20T05:49:11;25.05;;;13.77;;
57025;SDS011;43961;52.940;6.834;2023-03-20T05:51:37;22.55;;;15.02;;
57025;SDS011;43961;52.940;6.834;2023-03-20T05:54:02;29.88;;;15.55;;
57025;SDS011;43961;52.940;6.834;2023-03-20T05:56:29;28.63;;;15.48;;
57025;SDS011;43961;52.940;6.834;2023-03-20T05:58:55;26.55;;;16.40;;
57025;SDS011;43961;52.940;6.834;2023-03-20T06:01:20;30.38;;;17.17;;
57025;SDS011;43961;52.940;6.834;2023-03-20T06:03:46;24.88;;;16.77;;
57025;SDS011;43961;52.940;6.834;2023-03-20T06:06:13;28.05;;;15.82;;
57025;SDS011;43961;52.940;6.834;2023-03-20T06:08:40;27.20;;;17.52;;
57025;SDS011;43961;52.940;6.834;2023-03-20T06:11:06;28.85;;;16.50;;
57025;SDS011;43961;52.940;6.834;2023-03-20T06:13:32;28.08;;;16.55;;
57025;SDS011;43961;52.940;6.834;2023-03-20T06:15:58;28.40;;;16.50;;
57025;SDS011;43961;52.940;6.834;2023-03-20T06:18:24;30.63;;;16.30;;
57025;SDS011;43961;52.940;6.834;2023-03-20T06:20:53;29.48;;;17.17;;
57025;SDS011;43961;52.940;6.834;2023-03-20T06:23:19;25.88;;;17.40;;
57025;SDS011;43961;52.940;6.834;2023-03-20T06:25:45;26.45;;;16.30;;
57025;SDS011;43961;52.940;6.834;2023-03-20T06:28:11;36.45;;;17.05;;
57025;SDS011;43961;52.940;6.834;2023-03-20T06:30:37;24.85;;;16.73;;
57025;SDS011;43961;52.940;6.834;2023-03-20T06:33:04;25.52;;;16.60;;
57025;SDS011;43961;52.940;6.834;2023-03-20T06:35:31;30.47;;;16.33;;
57025;SDS011;43961;52.940;6.834;2023-03-20T06:37:57;27.00;;;15.75;;
57025;SDS011;43961;52.940;6.834;2023-03-20T06:40:24;24.40;;;15.30;;
57025;SDS011;43961;52.940;6.834;2023-03-20T06:42:51;34.75;;;15.43;;
57025;SDS011;43961;52.940;6.834;2023-03-20T06:45:18;25.58;;;17.23;;
57025;SDS011;43961;52.940;6.834;2023-03-20T06:47:44;23.48;;;15.65;;
57025;SDS011;43961;52.940;6.834;2023-03-20T06:50:11;21.08;;;15.40;;
57025;SDS011;43961;52.940;6.834;2023-03-20T06:52:37;31.67;;;15.98;;
57025;SDS011;43961;52.940;6.834;2023-03-20T06:55:04;24.67;;;14.93;;
57025;SDS011;43961;52.940;6.834;2023-03-20T06:57:30;21.20;;;14.07;;
57025;SDS011;43961;52.940;6.834;2023-03-20T06:59:56;22.25;;;14.20;;
57025;SDS011;43961;52.940;6.834;2023-03-20T07:02:22;22.63;;;14.30;;
57025;SDS011;43961;52.940;6.834;2023-03-20T07:04:49;23.43;;;12.73;;
57025;SDS011;43961;52.940;6.834;2023-03-20T07:07:15;28.25;;;14.95;;
57025;SDS011;43961;52.940;6.834;2023-03-20T07:09:41;23.85;;;13.80;;
57025;SDS011;43961;52.940;6.834;2023-03-20T07:12:11;21.90;;;14.52;;
57025;SDS011;43961;52.940;6.834;2023-03-20T07:14:41;25.45;;;14.32;;
57025;SDS011;43961;52.940;6.834;2023-03-20T07:17:07;21.08;;;14.68;;
57025;SDS011;43961;52.940;6.834;2023-03-20T07:19:34;24.08;;;14.27;;
57025;SDS011;43961;52.940;6.834;2023-03-20T07:22:02;19.92;;;13.35;;
57025;SDS011;43961;52.940;6.834;2023-03-20T07:24:30;26.45;;;14.18;;
57025;SDS011;43961;52.940;6.834;2023-03-20T07:26:56;23.55;;;14.70;;
57025;SDS011;43961;52.940;6.834;2023-03-20T07:29:22;23.20;;;15.02;;
57025;SDS011;43961;52.940;6.834;2023-03-20T07:31:48;22.08;;;14.70;;
57025;SDS011;43961;52.940;6.834;2023-03-20T07:34:14;29.52;;;14.23;;
57025;SDS011;43961;52.940;6.834;2023-03-20T07:36:40;30.27;;;14.60;;
57025;SDS011;43961;52.940;6.834;2023-03-20T07:39:06;20.05;;;12.82;;
57025;SDS011;43961;52.940;6.834;2023-03-20T07:41:32;23.10;;;13.98;;
57025;SDS011;43961;52.940;6.834;2023-03-20T07:43:58;29.35;;;14.27;;
57025;SDS011;43961;52.940;6.834;2023-03-20T07:46:24;21.25;;;13.57;;
57025;SDS011;43961;52.940;6.834;2023-03-20T07:48:50;22.15;;;13.90;;
57025;SDS011;43961;52.940;6.834;2023-03-20T07:51:16;29.52;;;14.20;;
57025;SDS011;43961;52.940;6.834;2023-03-20T07:53:42;29.38;;;13.45;;
57025;SDS011;43961;52.940;6.834;2023-03-20T07:56:08;22.98;;;13.50;;
57025;SDS011;43961;52.940;6.834;2023-03-20T07:58:34;24.23;;;14.35;;
57025;SDS011;43961;52.940;6.834;2023-03-20T08:01:00;28.15;;;13.32;;
57025;SDS011;43961;52.940;6.834;2023-03-20T08:03:27;18.13;;;13.32;;
57025;SDS011;43961;52.940;6.834;2023-03-20T08:05:53;24.73;;;14.45;;
57025;SDS011;43961;52.940;6.834;2023-03-20T08:08:20;22.65;;;13.27;;
57025;SDS011;43961;52.940;6.834;2023-03-20T08:10:46;21.08;;;13.70;;
57025;SDS011;43961;52.940;6.834;2023-03-20T08:13:12;24.63;;;13.70;;
57025;SDS011;43961;52.940;6.834;2023-03-20T08:15:38;22.80;;;15.13;;
57025;SDS011;43961;52.940;6.834;2023-03-20T08:18:04;26.55;;;14.50;;
57025;SDS011;43961;52.940;6.834;2023-03-20T08:20:30;24.70;;;13.40;;
57025;SDS011;43961;52.940;6.834;2023-03-20T08:22:56;22.52;;;13.48;;
57025;SDS011;43961;52.940;6.834;2023-03-20T08:25:21;24.42;;;14.48;;
57025;SDS011;43961;52.940;6.834;2023-03-20T08:27:47;25.65;;;13.98;;
57025;SDS011;43961;52.940;6.834;2023-03-20T08:30:14;20.67;;;13.88;;
57025;SDS011;43961;52.940;6.834;2023-03-20T08:32:40;19.60;;;13.82;;
57025;SDS011;43961;52.940;6.834;2023-03-20T08:35:06;31.10;;;15.15;;
57025;SDS011;43961;52.940;6.834;2023-03-20T08:37:33;24.38;;;14.13;;
57025;SDS011;43961;52.940;6.834;2023-03-20T08:40:00;23.50;;;13.73;;
57025;SDS011;43961;52.940;6.834;2023-03-20T08:42:25;22.17;;;13.68;;
57025;SDS011;43961;52.940;6.834;2023-03-20T08:44:51;21.80;;;14.52;;
57025;SDS011;43961;52.940;6.834;2023-03-20T08:47:17;23.20;;;14.68;;
57025;SDS011;43961;52.940;6.834;2023-03-20T08:49:43;24.98;;;14.18;;
57025;SDS011;43961;52.940;6.834;2023-03-20T08:52:09;21.63;;;15.60;;
57025;SDS011;43961;52.940;6.834;2023-03-20T08:54:35;31.20;;;16.95;;
57025;SDS011;43961;52.940;6.834;2023-03-20T08:57:00;27.48;;;16.08;;
57025;SDS011;43961;52.940;6.834;2023-03-20T08:59:26;22.00;;;14.38;;
57025;SDS011;43961;52.940;6.834;2023-03-20T09:01:52;25.45;;;15.77;;
57025;SDS011;43961;52.940;6.834;2023-03-20T09:04:17;25.10;;;14.63;;
57025;SDS011;43961;52.940;6.834;2023-03-20T09:06:43;20.63;;;14.40;;
57025;SDS011;43961;52.940;6.834;2023-03-20T09:09:09;24.50;;;15.85;;
57025;SDS011;43961;52.940;6.834;2023-03-20T09:11:34;30.55;;;13.80;;
57025;SDS011;43961;52.940;6.834;2023-03-20T09:14:01;22.00;;;14.32;;
57025;SDS011;43961;52.940;6.834;2023-03-20T09:16:27;24.08;;;15.45;;
57025;SDS011;43961;52.940;6.834;2023-03-20T09:18:53;30.30;;;16.00;;
57025;SDS011;43961;52.940;6.834;2023-03-20T09:21:19;24.80;;;14.38;;
57025;SDS011;43961;52.940;6.834;2023-03-20T09:23:44;20.73;;;15.40;;
57025;SDS011;43961;52.940;6.834;2023-03-20T09:26:11;19.50;;;14.63;;
57025;SDS011;43961;52.940;6.834;2023-03-20T09:28:36;26.90;;;16.02;;
57025;SDS011;43961;52.940;6.834;2023-03-20T09:31:02;26.48;;;16.35;;
57025;SDS011;43961;52.940;6.834;2023-03-20T09:33:28;27.52;;;17.13;;
57025;SDS011;43961;52.940;6.834;2023-03-20T09:35:54;22.88;;;16.95;;
57025;SDS011;43961;52.940;6.834;2023-03-20T09:38:20;26.48;;;15.38;;
57025;SDS011;43961;52.940;6.834;2023-03-20T09:40:48;19.88;;;13.80;;
57025;SDS011;43961;52.940;6.834;2023-03-20T09:43:25;20.70;;;14.02;;
57025;SDS011;43961;52.940;6.834;2023-03-20T09:49:46;21.13;;;14.40;;
57025;SDS011;43961;52.940;6.834;2023-03-20T09:54:57;29.05;;;15.25;;
57025;SDS011;43961;52.940;6.834;2023-03-20T09:57:39;21.13;;;13.25;;
57025;SDS011;43961;52.940;6.834;2023-03-20T10:00:14;19.63;;;14.63;;
57025;SDS011;43961;52.940;6.834;2023-03-20T10:02:50;22.15;;;15.73;;
57025;SDS011;43961;52.940;6.834;2023-03-20T10:05:26;21.52;;;13.95;;
57025;SDS011;43961;52.940;6.834;2023-03-20T10:07:53;19.40;;;13.98;;
57025;SDS011;43961;52.940;6.834;2023-03-20T10:11:12;18.60;;;12.73;;
57025;SDS011;43961;52.940;6.834;2023-03-20T10:16:12;18.50;;;11.93;;
57025;SDS011;43961;52.940;6.834;2023-03-20T10:21:18;22.83;;;12.60;;
57025;SDS011;43961;52.940;6.834;2023-03-20T10:26:23;19.83;;;12.45;;
57025;SDS011;43961;52.940;6.834;2023-03-20T10:28:56;18.30;;;11.93;;
57025;SDS011;43961;52.940;6.834;2023-03-20T10:37:21;21.73;;;12.85;;
57025;SDS011;43961;52.940;6.834;2023-03-20T10:40:19;22.60;;;14.48;;
57025;SDS011;43961;52.940;6.834;2023-03-20T10:51:05;31.77;;;15.57;;
57025;SDS011;43961;52.940;6.834;2023-03-20T10:53:51;20.13;;;16.55;;
57025;SDS011;43961;52.940;6.834;2023-03-20T10:56:39;22.15;;;14.55;;
57025;SDS011;43961;52.940;6.834;2023-03-20T11:01:44;18.40;;;14.82;;
57025;SDS011;43961;52.940;6.834;2023-03-20T11:04:11;18.33;;;15.75;;
57025;SDS011;43961;52.940;6.834;2023-03-20T11:06:42;30.48;;;18.48;;
57025;SDS011;43961;52.940;6.834;2023-03-20T11:09:21;24.98;;;18.73;;
57025;SDS011;43961;52.940;6.834;2023-03-20T11:11:50;22.10;;;17.13;;
57025;SDS011;43961;52.940;6.834;2023-03-20T11:14:22;24.95;;;17.27;;
57025;SDS011;43961;52.940;6.834;2023-03-20T11:16:54;25.83;;;18.15;;
57025;SDS011;43961;52.940;6.834;2023-03-20T11:19:24;26.40;;;17.90;;
57025;SDS011;43961;52.940;6.834;2023-03-20T11:24:25;31.48;;;18.30;;
57025;SDS011;43961;52.940;6.834;2023-03-20T11:27:16;26.63;;;18.30;;
57025;SDS011;43961;52.940;6.834;2023-03-20T11:29:45;25.52;;;16.98;;
57025;SDS011;43961;52.940;6.834;2023-03-20T11:34:52;19.23;;;16.05;;
57025;SDS011;43961;52.940;6.834;2023-03-20T11:37:28;29.15;;;15.98;;
57025;SDS011;43961;52.940;6.834;2023-03-20T11:40:43;23.05;;;15.80;;
57025;SDS011;43961;52.940;6.834;2023-03-20T11:42:56;16.55;;;14.85;;
57025;SDS011;43961;52.940;6.834;2023-03-20T11:45:25;14.27;;;12.10;;
57025;SDS011;43961;52.940;6.834;2023-03-20T11:47:54;13.65;;;11.95;;
57025;SDS011;43961;52.940;6.834;2023-03-20T11:52:53;19.55;;;14.93;;
57025;SDS011;43961;52.940;6.834;2023-03-20T11:55:32;17.75;;;13.65;;
57025;SDS011;43961;52.940;6.834;2023-03-20T11:58:00;22.13;;;14.40;;
57025;SDS011;43961;52.940;6.834;2023-03-20T12:00:34;25.92;;;15.30;;
57025;SDS011;43961;52.940;6.834;2023-03-20T12:03:02;23.17;;;15.48;;
57025;SDS011;43961;52.940;6.834;2023-03-20T12:05:32;20.10;;;15.50;;
57025;SDS011;43961;52.940;6.834;2023-03-20T12:08:17;16.65;;;14.00;;
57025;SDS011;43961;52.940;6.834;2023-03-20T12:10:50;20.48;;;12.70;;
57025;SDS011;43961;52.940;6.834;2023-03-20T12:13:22;28.00;;;13.18;;
57025;SDS011;43961;52.940;6.834;2023-03-20T12:16:03;18.33;;;13.20;;
57025;SDS011;43961;52.940;6.834;2023-03-20T12:18:37;22.70;;;13.13;;
57025;SDS011;43961;52.940;6.834;2023-03-20T12:23:50;23.10;;;14.30;;
57025;SDS011;43961;52.940;6.834;2023-03-20T12:29:26;14.43;;;12.23;;
57025;SDS011;43961;52.940;6.834;2023-03-20T12:37:02;22.55;;;12.73;;
57025;SDS011;43961;52.940;6.834;2023-03-20T12:39:32;16.13;;;11.27;;
57025;SDS011;43961;52.940;6.834;2023-03-20T12:50:55;6.47;;;5.15;;
57025;SDS011;43961;52.940;6.834;2023-03-20T12:53:38;8.38;;;5.43;;
57025;SDS011;43961;52.940;6.834;2023-03-20T12:58:46;12.95;;;6.40;;
57025;SDS011;43961;52.940;6.834;2023-03-20T13:01:41;11.57;;;5.90;;
57025;SDS011;43961;52.940;6.834;2023-03-20T13:11:50;6.65;;;5.70;;
57025;SDS011;43961;52.940;6.834;2023-03-20T13:20:25;9.82;;;6.97;;
57025;SDS011;43961;52.940;6.834;2023-03-20T13:23:12;11.15;;;7.50;;
57025;SDS011;43961;52.940;6.834;2023-03-20T13:34:11;13.13;;;8.32;;
57025;SDS011;43961;52.940;6.834;2023-03-20T13:37:04;16.77;;;8.95;;
57025;SDS011;43961;52.940;6.834;2023-03-20T13:39:51;9.70;;;8.32;;
57025;SDS011;43961;52.940;6.834;2023-03-20T13:42:28;12.02;;;8.38;;
57025;SDS011;43961;52.940;6.834;2023-03-20T13:45:00;9.68;;;8.45;;
57025;SDS011;43961;52.940;6.834;2023-03-20T13:47:31;15.40;;;10.85;;
57025;SDS011;43961;52.940;6.834;2023-03-20T13:52:50;12.80;;;9.00;;
57025;SDS011;43961;52.940;6.834;2023-03-20T13:55:30;14.48;;;9.30;;
57025;SDS011;43961;52.940;6.834;2023-03-20T14:00:58;14.30;;;9.65;;
57025;SDS011;43961;52.940;6.834;2023-03-20T14:03:39;15.98;;;10.00;;
57025;SDS011;43961;52.940;6.834;2023-03-20T14:06:42;11.50;;;9.43;;
57025;SDS011;43961;52.940;6.834;2023-03-20T14:09:04;11.68;;;9.13;;
57025;SDS011;43961;52.940;6.834;2023-03-20T14:11:51;10.52;;;8.70;;
57025;SDS011;43961;52.940;6.834;2023-03-20T14:14:31;15.40;;;10.15;;
57025;SDS011;43961;52.940;6.834;2023-03-20T14:17:20;13.65;;;9.35;;
57025;SDS011;43961;52.940;6.834;2023-03-20T14:19:52;13.70;;;9.23;;
57025;SDS011;43961;52.940;6.834;2023-03-20T14:22:21;15.68;;;9.80;;
57025;SDS011;43961;52.940;6.834;2023-03-20T14:25:07;20.73;;;12.50;;
57025;SDS011;43961;52.940;6.834;2023-03-20T14:27:58;16.50;;;9.32;;
57025;SDS011;43961;52.940;6.834;2023-03-20T14:35:48;10.30;;;9.15;;
57025;SDS011;43961;52.940;6.834;2023-03-20T14:41:16;16.90;;;10.38;;
57025;SDS011;43961;52.940;6.834;2023-03-20T14:51:52;11.77;;;9.10;;
57025;SDS011;43961;52.940;6.834;2023-03-20T14:54:38;19.92;;;10.80;;
57025;SDS011;43961;52.940;6.834;2023-03-20T14:57:16;15.75;;;11.43;;
57025;SDS011;43961;52.940;6.834;2023-03-20T14:59:47;15.50;;;10.15;;
57025;SDS011;43961;52.940;6.834;2023-03-20T15:02:22;18.65;;;10.18;;
57025;SDS011;43961;52.940;6.834;2023-03-20T15:04:54;22.92;;;11.38;;
57025;SDS011;43961;52.940;6.834;2023-03-20T15:07:25;18.95;;;9.50;;
57025;SDS011;43961;52.940;6.834;2023-03-20T15:09:53;24.75;;;11.70;;
57025;SDS011;43961;52.940;6.834;2023-03-20T15:12:26;12.15;;;9.82;;
57025;SDS011;43961;52.940;6.834;2023-03-20T15:14:58;13.15;;;9.85;;
57025;SDS011;43961;52.940;6.834;2023-03-20T15:17:36;19.38;;;12.02;;
57025;SDS011;43961;52.940;6.834;2023-03-20T15:22:46;16.63;;;10.93;;
57025;SDS011;43961;52.940;6.834;2023-03-20T15:25:20;11.32;;;9.95;;
57025;SDS011;43961;52.940;6.834;2023-03-20T15:27:48;14.73;;;11.65;;
57025;SDS011;43961;52.940;6.834;2023-03-20T15:30:17;13.27;;;10.95;;
57025;SDS011;43961;52.940;6.834;2023-03-20T15:32:47;18.60;;;11.45;;
57025;SDS011;43961;52.940;6.834;2023-03-20T15:35:18;13.57;;;11.38;;
57025;SDS011;43961;52.940;6.834;2023-03-20T15:37:47;18.25;;;11.43;;
57025;SDS011;43961;52.940;6.834;2023-03-20T15:40:22;15.02;;;10.43;;
57025;SDS011;43961;52.940;6.834;2023-03-20T15:42:55;16.90;;;11.65;;
57025;SDS011;43961;52.940;6.834;2023-03-20T15:45:30;16.95;;;11.98;;
57025;SDS011;43961;52.940;6.834;2023-03-20T15:48:04;14.52;;;11.70;;
57025;SDS011;43961;52.940;6.834;2023-03-20T15:50:41;17.75;;;10.82;;
57025;SDS011;43961;52.940;6.834;2023-03-20T15:53:14;14.93;;;11.32;;
57025;SDS011;43961;52.940;6.834;2023-03-20T15:56:00;11.77;;;10.52;;
57025;SDS011;43961;52.940;6.834;2023-03-20T15:58:35;16.58;;;12.45;;
57025;SDS011;43961;52.940;6.834;2023-03-20T16:01:01;14.13;;;11.70;;
57025;SDS011;43961;52.940;6.834;2023-03-20T16:03:29;18.83;;;13.00;;
57025;SDS011;43961;52.940;6.834;2023-03-20T16:05:57;12.43;;;10.40;;
57025;SDS011;43961;52.940;6.834;2023-03-20T16:10:57;15.00;;;11.15;;
57025;SDS011;43961;52.940;6.834;2023-03-20T16:13:30;20.00;;;11.15;;
57025;SDS011;43961;52.940;6.834;2023-03-20T16:16:02;13.75;;;11.48;;
57025;SDS011;43961;52.940;6.834;2023-03-20T16:18:30;15.88;;;11.93;;
57025;SDS011;43961;52.940;6.834;2023-03-20T16:21:02;19.75;;;11.95;;
57025;SDS011;43961;52.940;6.834;2023-03-20T16:26:05;17.83;;;13.30;;
57025;SDS011;43961;52.940;6.834;2023-03-20T16:28:34;15.75;;;12.05;;
57025;SDS011;43961;52.940;6.834;2023-03-20T16:31:08;17.75;;;14.07;;
57025;SDS011;43961;52.940;6.834;2023-03-20T16:33:39;15.40;;;12.70;;
57025;SDS011;43961;52.940;6.834;2023-03-20T16:36:05;20.58;;;13.30;;
57025;SDS011;43961;52.940;6.834;2023-03-20T16:38:32;20.65;;;14.38;;
57025;SDS011;43961;52.940;6.834;2023-03-20T16:44:04;16.98;;;13.80;;
57025;SDS011;43961;52.940;6.834;2023-03-20T16:46:57;17.35;;;14.75;;
57025;SDS011;43961;52.940;6.834;2023-03-20T16:51:57;16.25;;;12.73;;
57025;SDS011;43961;52.940;6.834;2023-03-20T16:54:28;17.80;;;14.32;;
57025;SDS011;43961;52.940;6.834;2023-03-20T16:56:58;18.33;;;15.10;;
57025;SDS011;43961;52.940;6.834;2023-03-20T16:59:24;19.35;;;14.32;;
57025;SDS011;43961;52.940;6.834;2023-03-20T17:01:50;23.40;;;14.48;;
57025;SDS011;43961;52.940;6.834;2023-03-20T17:04:20;21.98;;;15.43;;
57025;SDS011;43961;52.940;6.834;2023-03-20T17:06:48;23.85;;;17.90;;
57025;SDS011;43961;52.940;6.834;2023-03-20T17:09:21;20.40;;;16.27;;
57025;SDS011;43961;52.940;6.834;2023-03-20T17:11:48;18.48;;;15.05;;
57025;SDS011;43961;52.940;6.834;2023-03-20T17:14:41;19.27;;;17.05;;
57025;SDS011;43961;52.940;6.834;2023-03-20T17:17:14;23.80;;;17.58;;
57025;SDS011;43961;52.940;6.834;2023-03-20T17:19:41;21.52;;;17.45;;
57025;SDS011;43961;52.940;6.834;2023-03-20T17:22:14;21.30;;;16.27;;
57025;SDS011;43961;52.940;6.834;2023-03-20T17:24:42;34.42;;;25.48;;
57025;SDS011;43961;52.940;6.834;2023-03-20T17:27:08;31.10;;;24.08;;
57025;SDS011;43961;52.940;6.834;2023-03-20T17:29:36;20.98;;;18.75;;
57025;SDS011;43961;52.940;6.834;2023-03-20T17:32:08;24.92;;;17.52;;
57025;SDS011;43961;52.940;6.834;2023-03-20T17:34:38;22.00;;;18.15;;
57025;SDS011;43961;52.940;6.834;2023-03-20T17:37:14;22.20;;;17.73;;